createdAt,value
2023-02-14T00:01:56.928Z,4.00
2023-02-14T00:04:23.985Z,4.00
2023-02-14T00:06:51.035Z,4.00
2023-02-14T00:09:19.924Z,4.00
2023-02-14T00:11:47.009Z,4.00
2023-02-14T00:14:32.982Z,4.00
2023-02-14T00:17:00.237Z,3.90
2023-02-14T00:19:27.624Z,4.00
2023-02-14T00:21:54.623Z,3.90
2023-02-14T00:24:24.374Z,4.00
2023-02-14T00:26:52.491Z,3.90
2023-02-14T00:29:23.456Z,4.00
2023-02-14T00:31:51.206Z,4.00
2023-02-14T00:34:19.190Z,4.00
2023-02-14T00:36:47.065Z,4.00
2023-02-14T00:39:15.331Z,4.10
2023-02-14T00:41:43.008Z,4.10
2023-02-14T00:44:11.071Z,4.10
2023-02-14T00:46:38.322Z,4.10
2023-02-14T00:49:05.540Z,4.10
2023-02-14T00:51:33.076Z,4.00
2023-02-14T00:54:00.118Z,4.00
2023-02-14T00:56:27.066Z,4.00
2023-02-14T00:58:54.058Z,4.00
2023-02-14T01:01:21.534Z,4.10
2023-02-14T01:03:48.981Z,4.10
2023-02-14T01:06:16.440Z,4.00
2023-02-14T01:08:43.498Z,4.10
2023-02-14T01:11:17.919Z,4.00
2023-02-14T01:13:45.711Z,4.10
2023-02-14T01:16:15.703Z,4.10
2023-02-14T01:18:43.608Z,4.10
2023-02-14T01:21:25.876Z,4.10
2023-02-14T01:23:55.173Z,4.00
2023-02-14T01:26:23.269Z,4.10
2023-02-14T01:28:50.748Z,4.10
2023-02-14T01:31:27.241Z,4.00
2023-02-14T01:33:55.270Z,4.00
2023-02-14T01:36:27.904Z,3.90
2023-02-14T01:39:02.342Z,4.00
2023-02-14T01:41:30.657Z,4.10
2023-02-14T01:44:28.603Z,4.10
2023-02-14T01:46:56.570Z,4.00
2023-02-14T01:49:37.946Z,4.10
2023-02-14T01:52:10.352Z,4.00
2023-02-14T01:54:41.730Z,4.00
2023-02-14T01:57:11.399Z,3.90
2023-02-14T01:59:43.026Z,3.90
2023-02-14T02:02:10.794Z,3.90
2023-02-14T02:04:45.002Z,4.00
2023-02-14T02:07:19.387Z,3.90
2023-02-14T02:09:51.625Z,3.80
2023-02-14T02:12:18.944Z,3.80
2023-02-14T02:14:47.216Z,3.90
2023-02-14T02:18:01.680Z,3.80
2023-02-14T02:20:31.668Z,3.90
2023-02-14T02:23:19.921Z,3.80
2023-02-14T02:26:31.492Z,3.80
2023-02-14T02:29:12.961Z,3.90
2023-02-14T02:32:23.692Z,3.90
2023-02-14T02:35:08.906Z,3.80
2023-02-14T02:37:57.570Z,3.90
2023-02-14T02:40:33.315Z,3.80
2023-02-14T02:43:21.255Z,3.80
2023-02-14T02:46:16.608Z,3.70
2023-02-14T02:48:52.529Z,3.70
2023-02-14T02:51:53.496Z,3.70
2023-02-14T02:54:28.456Z,3.50
2023-02-14T02:56:59.706Z,3.60
2023-02-14T02:59:36.858Z,3.50
2023-02-14T03:02:18.367Z,3.50
2023-02-14T03:05:02.127Z,3.50
2023-02-14T03:07:39.639Z,3.40
2023-02-14T03:10:19.658Z,3.40
2023-02-14T03:13:31.004Z,3.40
2023-02-14T03:16:03.667Z,3.40
2023-02-14T03:19:10.918Z,3.50
2023-02-14T03:21:57.643Z,3.50
2023-02-14T03:24:32.863Z,3.60
2023-02-14T03:27:21.222Z,3.70
2023-02-14T03:30:26.325Z,3.70
2023-02-14T03:33:27.718Z,3.60
2023-02-14T03:36:04.273Z,3.60
2023-02-14T03:38:49.619Z,3.60
2023-02-14T03:41:24.182Z,3.70
2023-02-14T03:43:56.722Z,3.70
2023-02-14T03:46:49.311Z,3.70
2023-02-14T03:49:22.140Z,3.60
2023-02-14T03:51:52.687Z,3.60
2023-02-14T03:54:21.157Z,3.60
2023-02-14T03:57:16.876Z,3.50
2023-02-14T03:59:44.287Z,3.50
2023-02-14T04:02:35.790Z,3.50
2023-02-14T04:05:07.518Z,3.50
2023-02-14T04:07:52.075Z,3.50
2023-02-14T04:10:20.900Z,3.50
2023-02-14T04:12:48.574Z,3.50
2023-02-14T04:15:16.543Z,3.40
2023-02-14T04:18:02.225Z,3.40
2023-02-14T04:20:29.874Z,3.50
2023-02-14T04:22:57.651Z,3.50
2023-02-14T04:25:25.046Z,3.50
2023-02-14T04:27:52.046Z,3.50
2023-02-14T04:30:21.017Z,3.50
2023-02-14T04:32:48.487Z,3.40
2023-02-14T04:35:15.943Z,3.60
2023-02-14T04:37:43.101Z,3.60
2023-02-14T04:40:10.593Z,3.60
2023-02-14T04:42:37.656Z,3.50
2023-02-14T04:45:04.872Z,3.50
2023-02-14T04:47:31.902Z,3.50
2023-02-14T04:49:58.956Z,3.40
2023-02-14T04:52:26.004Z,3.40
2023-02-14T04:54:53.420Z,3.40
2023-02-14T04:57:20.507Z,3.40
2023-02-14T04:59:47.451Z,3.30
2023-02-14T05:02:14.601Z,3.30
2023-02-14T05:04:41.619Z,3.30
2023-02-14T05:07:08.586Z,3.30
2023-02-14T05:09:35.567Z,3.30
2023-02-14T05:12:02.531Z,3.20
2023-02-14T05:14:29.531Z,3.10
2023-02-14T05:16:56.491Z,3.20
2023-02-14T05:19:24.136Z,3.20
2023-02-14T05:21:51.038Z,3.20
2023-02-14T05:24:18.295Z,3.20
2023-02-14T05:26:45.254Z,3.20
2023-02-14T05:29:12.293Z,3.20
2023-02-14T05:31:39.387Z,3.20
2023-02-14T05:34:06.660Z,3.20
2023-02-14T05:36:33.727Z,3.10
2023-02-14T05:39:00.662Z,3.10
2023-02-14T05:41:27.673Z,3.10
2023-02-14T05:43:54.671Z,3.10
2023-02-14T05:46:21.808Z,3.10
2023-02-14T05:48:48.806Z,3.10
2023-02-14T05:51:15.785Z,3.00
2023-02-14T05:53:42.711Z,3.00
2023-02-14T05:59:57.495Z,3.10
2023-02-14T06:02:24.734Z,3.10
2023-02-14T06:04:51.968Z,3.00
2023-02-14T06:07:19.306Z,3.00
2023-02-14T06:09:46.325Z,3.00
2023-02-14T06:12:13.246Z,3.00
2023-02-14T06:14:41.666Z,3.00
2023-02-14T06:17:09.989Z,3.10
2023-02-14T06:19:37.280Z,3.00
2023-02-14T06:22:04.743Z,3.00
2023-02-14T06:24:31.825Z,3.00
2023-02-14T06:26:59.887Z,3.00
2023-02-14T06:29:26.891Z,3.00
2023-02-14T06:31:54.008Z,3.10
2023-02-14T06:34:21.041Z,3.00
2023-02-14T06:36:48.030Z,3.10
2023-02-14T06:39:15.127Z,3.00
2023-02-14T06:41:42.082Z,3.10
2023-02-14T06:44:10.587Z,3.00
2023-02-14T06:46:37.559Z,3.00
2023-02-14T06:49:04.565Z,3.00
2023-02-14T06:51:31.499Z,3.00
2023-02-14T06:53:58.507Z,3.10
2023-02-14T06:56:25.508Z,3.10
2023-02-14T06:58:52.553Z,3.10
2023-02-14T07:01:19.566Z,3.10
2023-02-14T07:03:46.490Z,3.20
2023-02-14T07:06:13.481Z,3.20
2023-02-14T07:08:40.419Z,3.20
2023-02-14T07:11:07.429Z,3.20
2023-02-14T07:13:34.460Z,3.30
2023-02-14T07:16:01.451Z,3.30
2023-02-14T07:18:28.508Z,3.40
2023-02-14T07:20:55.685Z,3.40
2023-02-14T07:23:22.867Z,3.40
2023-02-14T07:25:49.905Z,3.40
2023-02-14T07:28:16.915Z,3.50
2023-02-14T07:30:44.011Z,3.50
2023-02-14T07:33:11.078Z,3.50
2023-02-14T07:35:38.085Z,3.60
2023-02-14T07:38:05.129Z,3.70
2023-02-14T07:40:32.282Z,3.70
2023-02-14T07:43:01.001Z,3.70
2023-02-14T07:45:28.155Z,3.80
2023-02-14T07:47:55.921Z,3.90
2023-02-14T07:50:23.484Z,4.00
2023-02-14T07:52:50.502Z,4.00
2023-02-14T07:55:17.582Z,4.00
2023-02-14T07:57:44.636Z,4.20
2023-02-14T08:00:12.147Z,4.10
2023-02-14T08:02:39.361Z,4.10
2023-02-14T08:05:06.635Z,4.10
2023-02-14T08:07:33.915Z,4.10
2023-02-14T08:10:00.882Z,4.10
2023-02-14T08:12:46.355Z,4.10
2023-02-14T08:15:31.645Z,4.10
2023-02-14T08:17:58.984Z,4.20
2023-02-14T08:20:26.020Z,4.20
2023-02-14T08:22:53.169Z,4.20
2023-02-14T08:25:20.288Z,4.30
2023-02-14T08:27:47.280Z,4.20
2023-02-14T08:30:14.942Z,4.10
2023-02-14T08:32:42.130Z,4.30
2023-02-14T08:35:09.256Z,4.30
2023-02-14T08:37:36.251Z,4.30
2023-02-14T08:40:03.551Z,4.40
2023-02-14T08:42:31.152Z,4.40
2023-02-14T08:44:58.120Z,4.50
2023-02-14T08:47:25.061Z,4.70
2023-02-14T08:49:51.988Z,4.80
2023-02-14T08:52:19.129Z,4.80
2023-02-14T08:54:46.039Z,4.70
2023-02-14T08:57:13.077Z,4.70
2023-02-14T08:59:40.016Z,4.90
2023-02-14T09:02:07.042Z,4.90
2023-02-14T09:04:35.754Z,5.00
2023-02-14T09:07:04.685Z,5.00
2023-02-14T09:09:32.428Z,5.00
2023-02-14T09:12:03.213Z,5.10
2023-02-14T09:14:32.096Z,5.10
2023-02-14T09:17:01.704Z,5.00
2023-02-14T09:19:28.726Z,4.90
2023-02-14T09:21:55.643Z,5.00
2023-02-14T09:24:22.562Z,5.00
2023-02-14T09:26:49.485Z,5.00
2023-02-14T09:29:16.400Z,5.10
2023-02-14T09:31:43.474Z,5.20
2023-02-14T09:34:10.490Z,5.30
2023-02-14T09:36:37.428Z,5.40
2023-02-14T09:39:04.878Z,5.40
2023-02-14T09:41:37.926Z,5.30
2023-02-14T09:44:21.024Z,5.30
2023-02-14T09:46:52.485Z,5.40
2023-02-14T09:49:30.253Z,5.40
2023-02-14T09:51:59.041Z,5.40
2023-02-14T09:54:29.006Z,5.40
2023-02-14T09:57:07.089Z,5.40
2023-02-14T09:59:37.784Z,5.50
2023-02-14T10:02:36.825Z,5.40
2023-02-14T10:05:13.163Z,5.50
2023-02-14T10:08:07.732Z,5.40
2023-02-14T10:10:43.292Z,5.50
2023-02-14T10:13:19.074Z,5.60
2023-02-14T10:15:50.910Z,5.70
2023-02-14T10:19:00.370Z,5.90
2023-02-14T10:21:48.646Z,5.70
2023-02-14T10:24:31.679Z,5.70
2023-02-14T10:27:21.569Z,5.70
2023-02-14T10:29:48.667Z,5.70
2023-02-14T10:32:24.597Z,5.60
2023-02-14T10:34:54.281Z,5.70
2023-02-14T10:38:01.504Z,5.80
2023-02-14T10:40:59.333Z,6.00
2023-02-14T10:43:35.939Z,6.10
2023-02-14T10:46:13.713Z,6.10
2023-02-14T10:48:59.685Z,6.00
2023-02-14T10:51:46.303Z,6.20
2023-02-14T10:54:22.556Z,6.00
2023-02-14T10:57:00.973Z,5.90
2023-02-14T10:59:35.131Z,6.00
2023-02-14T11:02:02.766Z,6.00
2023-02-14T11:04:31.461Z,6.20
2023-02-14T11:06:58.542Z,6.30
2023-02-14T11:09:25.510Z,6.40
2023-02-14T11:11:56.274Z,6.50
2023-02-14T11:14:31.638Z,6.50
2023-02-14T11:17:00.360Z,6.50
2023-02-14T11:19:37.141Z,6.40
2023-02-14T11:22:04.808Z,6.30
2023-02-14T11:24:38.583Z,6.50
2023-02-14T11:27:25.781Z,6.50
2023-02-14T11:29:53.178Z,6.70
2023-02-14T11:32:26.695Z,6.70
2023-02-14T11:35:04.548Z,6.70
2023-02-14T11:37:38.350Z,6.70
2023-02-14T11:40:06.509Z,6.70
2023-02-14T11:42:45.497Z,6.80
2023-02-14T11:45:45.823Z,6.90
2023-02-14T11:48:36.727Z,6.70
2023-02-14T11:51:16.214Z,6.50
2023-02-14T11:53:49.593Z,6.60
2023-02-14T11:56:19.015Z,6.60
2023-02-14T11:58:54.992Z,6.60
2023-02-14T12:01:24.354Z,6.40
2023-02-14T12:03:53.428Z,6.20
2023-02-14T12:06:29.349Z,6.20
2023-02-14T12:09:12.582Z,6.20
2023-02-14T12:11:39.757Z,6.20
2023-02-14T12:14:21.862Z,6.30
2023-02-14T12:17:20.057Z,6.30
2023-02-14T12:20:16.249Z,6.30
2023-02-14T12:23:01.320Z,6.40
2023-02-14T12:25:44.331Z,6.30
2023-02-14T12:28:16.500Z,6.30
2023-02-14T12:30:43.648Z,6.40
2023-02-14T12:33:22.024Z,6.40
2023-02-14T12:35:58.936Z,6.30
2023-02-14T12:38:34.366Z,6.40
2023-02-14T12:41:16.421Z,6.20
2023-02-14T12:43:48.121Z,6.20
2023-02-14T12:46:47.381Z,6.20
2023-02-14T12:49:17.172Z,6.20
2023-02-14T12:51:46.986Z,6.10
2023-02-14T12:54:35.137Z,6.10
2023-02-14T12:57:08.086Z,6.10
2023-02-14T12:59:56.102Z,6.00
2023-02-14T13:02:44.721Z,6.00
2023-02-14T13:05:14.702Z,5.90
2023-02-14T13:08:12.431Z,5.80
2023-02-14T13:11:14.319Z,5.70
2023-02-14T13:13:47.239Z,5.60
2023-02-14T13:16:33.510Z,5.50
2023-02-14T13:19:39.593Z,5.50
2023-02-14T13:22:11.639Z,5.30
2023-02-14T13:24:43.926Z,5.40
2023-02-14T13:27:22.641Z,5.40
2023-02-14T13:29:59.094Z,5.40
2023-02-14T13:32:33.381Z,5.50
2023-02-14T13:35:01.598Z,5.40
2023-02-14T13:37:30.575Z,5.50
2023-02-14T13:40:18.225Z,5.50
2023-02-14T13:42:48.186Z,5.50
2023-02-14T13:45:50.880Z,5.40
2023-02-14T13:48:21.815Z,5.40
2023-02-14T13:50:57.943Z,5.40
2023-02-14T13:53:32.913Z,5.30
2023-02-14T13:56:00.967Z,5.30
2023-02-14T13:58:28.475Z,5.20
2023-02-14T14:00:55.774Z,5.20
2023-02-14T14:03:28.986Z,5.20
2023-02-14T14:06:06.653Z,5.20
2023-02-14T14:08:38.877Z,5.20
2023-02-14T14:11:22.639Z,5.10
2023-02-14T14:14:02.661Z,5.20
2023-02-14T14:16:33.861Z,5.20
2023-02-14T14:19:06.935Z,5.20
2023-02-14T14:21:39.720Z,5.20
2023-02-14T14:24:12.907Z,5.20
2023-02-14T14:26:46.468Z,5.10
2023-02-14T14:29:22.564Z,5.10
2023-02-14T14:31:55.706Z,5.10
2023-02-14T14:34:28.352Z,5.00
2023-02-14T14:37:06.376Z,5.00
2023-02-14T14:39:35.467Z,4.90
2023-02-14T14:42:15.653Z,4.90
2023-02-14T14:44:56.023Z,4.90
2023-02-14T14:47:47.888Z,4.80
2023-02-14T14:50:26.949Z,4.80
2023-02-14T14:52:58.710Z,4.70
2023-02-14T14:55:29.612Z,4.70
2023-02-14T14:57:59.742Z,4.60
2023-02-14T15:00:36.275Z,4.60
2023-02-14T15:03:05.198Z,4.60
2023-02-14T15:05:38.184Z,4.60
2023-02-14T15:08:20.285Z,4.50
2023-02-14T15:11:35.189Z,4.50
2023-02-14T15:14:05.841Z,4.50
2023-02-14T15:16:45.102Z,4.40
2023-02-14T15:19:33.597Z,4.40
2023-02-14T15:22:18.708Z,4.30
2023-02-14T15:24:46.453Z,4.40
2023-02-14T15:27:23.315Z,4.30
2023-02-14T15:29:54.461Z,4.30
2023-02-14T15:32:22.054Z,4.30
2023-02-14T15:34:49.895Z,4.20
2023-02-14T15:37:17.590Z,4.20
2023-02-14T15:39:52.584Z,4.10
2023-02-14T15:42:32.787Z,4.20
2023-02-14T15:45:18.306Z,4.10
2023-02-14T15:47:48.467Z,4.00
2023-02-14T15:50:26.059Z,3.90
2023-02-14T15:52:58.495Z,3.90
2023-02-14T15:55:27.753Z,3.70
2023-02-14T15:58:02.355Z,3.60
2023-02-14T16:00:31.730Z,3.60
2023-02-14T16:03:07.869Z,3.50
2023-02-14T16:05:35.178Z,3.40
2023-02-14T16:08:28.011Z,3.40
2023-02-14T16:11:09.862Z,3.30
2023-02-14T16:13:38.756Z,3.30
2023-02-14T16:16:11.440Z,3.20
2023-02-14T16:18:48.693Z,3.10
2023-02-14T16:21:17.449Z,3.10
2023-02-14T16:23:46.888Z,3.10
2023-02-14T16:26:14.658Z,3.10
2023-02-14T16:28:43.391Z,3.20
2023-02-14T16:31:16.701Z,3.30
2023-02-14T16:33:43.786Z,3.20
2023-02-14T16:36:33.145Z,3.30
2023-02-14T16:39:05.079Z,3.30
2023-02-14T16:41:34.422Z,3.30
2023-02-14T16:44:01.471Z,3.30
2023-02-14T16:46:35.264Z,3.20
2023-02-14T16:49:02.280Z,3.20
2023-02-14T16:51:32.638Z,3.30
2023-02-14T16:54:04.372Z,3.30
2023-02-14T16:57:04.314Z,3.30
2023-02-14T16:59:31.841Z,3.30
2023-02-14T17:01:59.105Z,3.30
2023-02-14T17:04:26.355Z,3.30
2023-02-14T17:06:55.349Z,3.20
2023-02-14T17:09:27.825Z,3.20
2023-02-14T17:11:57.972Z,3.20
2023-02-14T17:14:29.187Z,3.20
2023-02-14T17:16:57.312Z,3.20
2023-02-14T17:19:24.366Z,3.20
2023-02-14T17:21:52.079Z,3.20
2023-02-14T17:24:18.983Z,3.20
2023-02-14T17:26:46.031Z,3.20
2023-02-14T17:29:13.586Z,3.20
2023-02-14T17:31:40.645Z,3.20
2023-02-14T17:34:07.670Z,3.20
2023-02-14T17:36:34.699Z,3.20
2023-02-14T17:39:03.413Z,3.20
2023-02-14T17:41:31.846Z,3.30
2023-02-14T17:44:00.476Z,3.30
2023-02-14T17:46:29.451Z,3.30
2023-02-14T17:48:57.612Z,3.40
2023-02-14T17:51:25.610Z,3.40
2023-02-14T17:53:52.617Z,3.40
2023-02-14T17:56:22.842Z,3.40
2023-02-14T17:58:51.726Z,3.40
2023-02-14T18:01:22.297Z,3.50
2023-02-14T18:03:52.008Z,3.50
2023-02-14T18:06:19.883Z,3.40
2023-02-14T18:08:58.022Z,3.50
2023-02-14T18:11:27.927Z,3.50
2023-02-14T18:13:56.554Z,3.50
2023-02-14T18:16:24.960Z,3.50
2023-02-14T18:18:52.407Z,3.40
2023-02-14T18:21:21.835Z,3.40
2023-02-14T18:23:48.952Z,3.50
2023-02-14T18:26:18.492Z,3.40
2023-02-14T18:28:45.963Z,3.40
2023-02-14T18:31:18.251Z,3.40
2023-02-14T18:33:48.468Z,3.40
2023-02-14T18:36:17.946Z,3.50
2023-02-14T18:38:46.401Z,3.50
2023-02-14T18:41:16.611Z,3.50
2023-02-14T18:43:44.839Z,3.50
2023-02-14T18:46:16.129Z,3.50
2023-02-14T18:48:43.745Z,3.50
2023-02-14T18:51:19.515Z,3.50
2023-02-14T18:53:47.202Z,3.50
2023-02-14T18:56:19.213Z,3.50
2023-02-14T18:58:50.615Z,3.50
2023-02-14T19:01:21.662Z,3.50
2023-02-14T19:03:49.849Z,3.50
2023-02-14T19:06:18.233Z,3.50
2023-02-14T19:08:45.708Z,3.50
2023-02-14T19:15:00.149Z,3.50
2023-02-14T19:17:27.732Z,3.50
2023-02-14T19:19:55.769Z,3.40
2023-02-14T19:22:22.855Z,3.50
2023-02-14T19:24:53.768Z,3.40
2023-02-14T19:27:21.667Z,3.50
2023-02-14T19:29:48.648Z,3.40
2023-02-14T19:32:15.936Z,3.40
2023-02-14T19:34:42.940Z,3.40
2023-02-14T19:37:09.870Z,3.40
2023-02-14T19:39:36.842Z,3.40
2023-02-14T19:42:05.298Z,3.40
2023-02-14T19:44:32.680Z,3.40
2023-02-14T19:47:02.747Z,3.40
2023-02-14T19:49:32.020Z,3.40
2023-02-14T19:51:59.780Z,3.40
2023-02-14T19:54:27.040Z,3.40
2023-02-14T19:56:56.339Z,3.40
2023-02-14T19:59:23.563Z,3.40
2023-02-14T20:01:52.834Z,3.40
2023-02-14T20:04:29.030Z,3.50
2023-02-14T20:06:56.868Z,3.40
2023-02-14T20:09:24.874Z,3.50
2023-02-14T20:11:56.627Z,3.40
2023-02-14T20:14:25.244Z,3.40
2023-02-14T20:16:53.821Z,3.30
2023-02-14T20:19:23.310Z,3.40
2023-02-14T20:21:51.084Z,3.40
2023-02-14T20:24:23.268Z,3.40
2023-02-14T20:26:51.343Z,3.40
2023-02-14T20:29:19.369Z,3.30
2023-02-14T20:31:49.635Z,3.30
2023-02-14T20:34:17.460Z,3.30
2023-02-14T20:36:49.686Z,3.40
2023-02-14T20:39:16.713Z,3.40
2023-02-14T20:41:46.450Z,3.40
2023-02-14T20:44:17.048Z,3.30
2023-02-14T20:46:44.306Z,3.40
2023-02-14T20:49:12.543Z,3.40
2023-02-14T20:51:39.785Z,3.40
2023-02-14T20:54:07.162Z,3.40
2023-02-14T20:56:34.636Z,3.40
2023-02-14T20:59:02.766Z,3.40
2023-02-14T21:01:30.207Z,3.40
2023-02-14T21:03:57.439Z,3.40
2023-02-14T21:06:27.436Z,3.40
2023-02-14T21:08:54.674Z,3.40
2023-02-14T21:11:24.389Z,3.40
2023-02-14T21:13:59.657Z,3.40
2023-02-14T21:16:29.457Z,3.40
2023-02-14T21:19:01.102Z,3.40
2023-02-14T21:21:32.596Z,3.40
2023-02-14T21:24:01.968Z,3.30
2023-02-14T21:26:29.504Z,3.40
2023-02-14T21:28:56.593Z,3.40
2023-02-14T21:31:25.764Z,3.30
2023-02-14T21:33:54.695Z,3.40
2023-02-14T21:36:24.687Z,3.40
2023-02-14T21:38:51.989Z,3.40
2023-02-14T21:41:21.057Z,3.40
2023-02-14T21:43:49.812Z,3.40
2023-02-14T21:46:18.990Z,3.40
2023-02-14T21:49:05.095Z,3.40
2023-02-14T21:51:32.593Z,3.40
2023-02-14T21:54:00.033Z,3.40
2023-02-14T21:56:27.697Z,3.40
2023-02-14T21:58:55.874Z,3.40
2023-02-14T22:01:32.695Z,3.50
2023-02-14T22:04:00.591Z,3.40
2023-02-14T22:06:28.182Z,3.50
2023-02-14T22:09:01.022Z,3.40
2023-02-14T22:11:29.335Z,3.40
2023-02-14T22:13:56.569Z,3.50
2023-02-14T22:16:24.738Z,3.50
2023-02-14T22:18:52.510Z,3.50
2023-02-14T22:21:25.010Z,3.50
2023-02-14T22:23:52.160Z,3.50
2023-02-14T22:26:23.721Z,3.40
2023-02-14T22:28:53.917Z,3.50
2023-02-14T22:31:21.071Z,3.40
2023-02-14T22:33:49.132Z,3.50
2023-02-14T22:36:16.793Z,3.40
2023-02-14T22:38:44.001Z,3.40
2023-02-14T22:41:14.198Z,3.50
2023-02-14T22:43:42.193Z,3.50
2023-02-14T22:46:14.423Z,3.40
2023-02-14T22:48:41.666Z,3.50
2023-02-14T22:51:18.021Z,3.50
2023-02-14T22:53:45.158Z,3.50
2023-02-14T22:56:19.028Z,3.50
2023-02-14T22:58:46.671Z,3.40
2023-02-14T23:01:19.006Z,3.50
2023-02-14T23:03:46.884Z,3.50
2023-02-14T23:06:14.586Z,3.50
2023-02-14T23:08:43.588Z,3.50
2023-02-14T23:11:18.852Z,3.40
2023-02-14T23:14:05.027Z,3.50
2023-02-14T23:16:50.671Z,3.50
2023-02-14T23:19:39.017Z,3.40
2023-02-14T23:22:07.135Z,3.40
2023-02-14T23:24:34.139Z,3.40
2023-02-14T23:27:01.909Z,3.50
2023-02-14T23:29:29.416Z,3.40
2023-02-14T23:31:56.682Z,3.40
2023-02-14T23:34:28.931Z,3.40
2023-02-14T23:36:55.932Z,3.40
2023-02-14T23:39:23.585Z,3.40
2023-02-14T23:41:50.629Z,3.40
2023-02-14T23:44:19.906Z,3.50
2023-02-14T23:46:48.667Z,3.50
2023-02-14T23:49:16.607Z,3.50
2023-02-14T23:51:45.401Z,3.50
2023-02-14T23:54:13.345Z,3.50
2023-02-14T23:56:40.756Z,3.40
2023-02-14T23:59:08.213Z,3.40
